Cedar, Iowa
Current Conditions -  °F | °C
As of 7:55 PM on Thursday 18 Dec 2014 (Local Time) from KOOA Reporting Station
Overcast Overcast  
Wind Chill: 26°   Ceiling: 3100
Heat Index: 26°   Visibility: 10mi
Dew Point: 22°   Wind: 3mph
Humidity: 84%   Direction: 90°E
Pressure: 30.27"   Gusts: NA
Location:  41.21°N, 92.53°W
Report Text: KOOA 190155Z AUTO 09003KT 10SM BKN031 OVC050 M03/M06 A3027 RMK AO2 T10331056
Loading
Personal Weather Stations






























Interactive Weather Map New forecast layout! Learn more

10-Day Weather Forecast

Advertisements
Track Severe Weather on mobile